Time;durP1;ratioP1;P1;durP2;ratioP2;P2;SDS_P1;SDS_P2;PMS_P1;PMS_P2;Temp;Humidity;BMP_temperature;BMP_pressure;BME280_temperature;BME280_humidity;BME280_pressure;Samples;Min_cycle;Max_cycle;Signal;HPM_P1;HPM_P2
2021/01/16 00:00:47;;;;;;;25.92;16.23;;;3.00;89.00;;;;;;4980675;28;20033;-59
2021/01/16 00:03:12;;;;;;;38.08;15.38;;;3.00;89.00;;;;;;4946798;28;20491;-57
2021/01/16 00:05:38;;;;;;;34.50;15.68;;;3.00;88.90;;;;;;4951931;28;20048;-58
2021/01/16 00:08:11;;;;;;;27.80;15.55;;;3.00;88.90;;;;;;4965387;28;20118;-57
2021/01/16 00:10:38;;;;;;;25.73;15.68;;;3.00;88.80;;;;;;4953590;28;20030;-57
2021/01/16 00:13:04;;;;;;;31.55;15.90;;;2.90;88.70;;;;;;4969872;28;20074;-58
2021/01/16 00:15:30;;;;;;;28.05;15.48;;;2.90;88.80;;;;;;4968372;28;20482;-58
2021/01/16 00:18:02;;;;;;;25.40;14.70;;;2.90;88.80;;;;;;4963904;28;20022;-59
2021/01/16 00:20:28;;;;;;;26.17;15.18;;;2.90;88.70;;;;;;4986835;28;20073;-58
2021/01/16 00:22:53;;;;;;;27.25;14.57;;;2.90;88.80;;;;;;4988320;28;20058;-58
2021/01/16 00:25:19;;;;;;;26.25;15.73;;;2.90;88.70;;;;;;4967944;28;20054;-58
2021/01/16 00:27:45;;;;;;;25.17;14.48;;;2.90;88.80;;;;;;4961485;28;20122;-59
2021/01/16 00:30:11;;;;;;;30.77;15.55;;;2.90;88.80;;;;;;4948969;28;20035;-58
2021/01/16 00:32:40;;;;;;;25.10;16.05;;;2.90;88.80;;;;;;4938285;28;20023;-57
2021/01/16 00:35:13;;;;;;;27.98;14.88;;;2.80;88.80;;;;;;4969836;28;20129;-56
2021/01/16 00:37:39;;;;;;;23.70;15.27;;;2.90;88.80;;;;;;4987425;28;20050;-59
2021/01/16 00:40:06;;;;;;;26.67;14.77;;;2.80;88.80;;;;;;4954695;28;20545;-57
2021/01/16 00:42:32;;;;;;;28.40;14.38;;;2.90;88.80;;;;;;4961214;28;20121;-59
2021/01/16 00:44:57;;;;;;;26.75;14.65;;;2.80;88.70;;;;;;4966088;28;20101;-57
2021/01/16 00:47:23;;;;;;;29.85;16.15;;;2.80;88.80;;;;;;4969343;28;20106;-58
2021/01/16 00:49:48;;;;;;;21.77;14.60;;;2.80;88.70;;;;;;4955659;28;20494;-58
2021/01/16 00:52:14;;;;;;;24.27;14.30;;;2.80;88.70;;;;;;4968058;28;20549;-58
2021/01/16 00:54:39;;;;;;;23.25;15.52;;;2.80;88.80;;;;;;4954613;28;20019;-57
2021/01/16 00:57:05;;;;;;;31.35;16.08;;;2.80;88.80;;;;;;4945636;28;20208;-57
2021/01/16 00:59:30;;;;;;;24.25;15.18;;;2.80;88.70;;;;;;4974231;28;20471;-57
2021/01/16 01:01:56;;;;;;;28.45;15.55;;;2.80;88.70;;;;;;4968070;28;20500;-57
2021/01/16 01:04:21;;;;;;;26.63;16.05;;;2.80;88.60;;;;;;4980002;28;20050;-57
2021/01/16 01:06:47;;;;;;;28.33;15.95;;;2.80;88.70;;;;;;4986541;28;20083;-57
2021/01/16 01:09:12;;;;;;;28.52;15.65;;;2.80;88.60;;;;;;4967927;28;20123;-57
2021/01/16 01:11:38;;;;;;;22.00;14.93;;;2.80;88.50;;;;;;4955693;28;20049;-58
2021/01/16 01:14:03;;;;;;;27.38;15.48;;;2.90;88.60;;;;;;4988918;28;20492;-58
2021/01/16 01:16:29;;;;;;;23.05;14.32;;;2.80;88.50;;;;;;4963020;28;20030;-59
2021/01/16 01:18:54;;;;;;;27.05;16.67;;;2.80;88.50;;;;;;4976889;28;20022;-56
2021/01/16 01:21:21;;;;;;;24.15;15.27;;;3.00;88.50;;;;;;4970046;28;20038;-58
2021/01/16 01:23:47;;;;;;;25.63;14.70;;;2.70;88.40;;;;;;4961617;28;20026;-57
2021/01/16 01:26:12;;;;;;;26.67;14.55;;;2.70;88.50;;;;;;4971710;28;20508;-58
2021/01/16 01:28:38;;;;;;;24.35;14.32;;;2.70;88.40;;;;;;4971087;28;20027;-58
2021/01/16 01:31:03;;;;;;;24.73;14.95;;;2.70;88.30;;;;;;4968946;28;20031;-59
2021/01/16 01:33:29;;;;;;;29.58;15.98;;;2.70;88.30;;;;;;4986432;28;20598;-58
2021/01/16 01:35:54;;;;;;;25.85;15.52;;;2.70;88.30;;;;;;4963465;28;20039;-58
2021/01/16 01:38:20;;;;;;;21.02;14.10;;;2.70;88.40;;;;;;4971391;28;20031;-58
2021/01/16 01:40:45;;;;;;;26.02;15.25;;;2.80;88.30;;;;;;4980541;28;20042;-56
2021/01/16 01:43:11;;;;;;;23.67;16.05;;;2.70;88.30;;;;;;4967797;28;20093;-58
2021/01/16 01:45:37;;;;;;;25.77;14.48;;;2.80;88.30;;;;;;4973275;28;20050;-57
2021/01/16 01:48:04;;;;;;;24.90;14.55;;;2.70;88.20;;;;;;4981707;28;20046;-58
2021/01/16 01:50:30;;;;;;;22.95;14.10;;;2.70;88.10;;;;;;4965392;28;20621;-58
2021/01/16 01:52:56;;;;;;;22.08;14.25;;;2.70;88.30;;;;;;4971162;28;20030;-59
2021/01/16 01:55:21;;;;;;;23.10;14.15;;;2.60;88.10;;;;;;4974926;28;20033;-57
2021/01/16 01:57:51;;;;;;;22.17;14.45;;;2.60;88.20;;;;;;4973317;28;20018;-57
2021/01/16 02:00:17;;;;;;;25.27;14.25;;;2.70;88.20;;;;;;4978353;28;20031;-56
2021/01/16 02:02:43;;;;;;;26.00;15.57;;;2.60;88.20;;;;;;4986795;28;20034;-59
2021/01/16 02:05:10;;;;;;;26.38;15.30;;;2.90;88.40;;;;;;4957894;28;20123;-58
2021/01/16 02:07:38;;;;;;;24.10;14.32;;;2.60;88.00;;;;;;4953836;28;20042;-57
2021/01/16 02:10:26;;;;;;;25.45;15.30;;;2.80;88.20;;;;;;4978642;28;20026;-58
2021/01/16 02:12:54;;;;;;;21.90;14.60;;;2.60;88.00;;;;;;4985610;28;20121;-59
2021/01/16 02:15:33;;;;;;;22.75;13.93;;;2.60;88.00;;;;;;4966438;28;21120;-59
2021/01/16 02:18:06;;;;;;;23.35;15.45;;;2.60;87.90;;;;;;4972455;28;20030;-57
2021/01/16 02:20:35;;;;;;;27.90;15.18;;;2.60;87.70;;;;;;4958439;28;20026;-58
2021/01/16 02:23:11;;;;;;;20.52;14.38;;;2.60;87.80;;;;;;4974907;28;20038;-58
2021/01/16 02:25:42;;;;;;;22.75;13.88;;;2.60;87.90;;;;;;4987021;28;20561;-58
2021/01/16 02:28:09;;;;;;;24.58;14.40;;;2.90;88.00;;;;;;4990128;28;20458;-58
2021/01/16 02:30:35;;;;;;;23.42;14.63;;;2.60;87.70;;;;;;4951616;28;20129;-59
2021/01/16 02:33:04;;;;;;;21.70;13.65;;;2.50;88.30;;;;;;4968005;28;20026;-57
2021/01/16 02:35:30;;;;;;;24.98;13.55;;;2.50;87.70;;;;;;4963521;28;20065;-59
2021/01/16 02:38:14;;;;;;;22.33;14.18;;;2.50;88.00;;;;;;4988367;28;20466;-58
2021/01/16 02:40:42;;;;;;;19.10;13.77;;;2.50;87.70;;;;;;4986256;28;20039;-57
2021/01/16 02:43:11;;;;;;;19.45;14.48;;;2.50;87.70;;;;;;4967654;28;20235;-59
2021/01/16 02:46:03;;;;;;;24.35;14.73;;;2.50;87.90;;;;;;4970082;28;20471;-58
2021/01/16 02:48:38;;;;;;;22.60;13.63;;;2.50;87.90;;;;;;4966462;28;20070;-58
2021/01/16 02:51:05;;;;;;;24.42;14.25;;;2.60;87.90;;;;;;4956541;28;20031;-58
2021/01/16 02:53:33;;;;;;;23.90;15.02;;;2.70;88.00;;;;;;4955374;28;20030;-59
2021/01/16 02:55:59;;;;;;;17.30;13.20;;;2.40;87.80;;;;;;4969815;28;20029;-57
2021/01/16 02:58:25;;;;;;;22.05;13.27;;;2.40;87.80;;;;;;4956974;28;20105;-57
2021/01/16 03:00:50;;;;;;;23.55;13.40;;;2.40;87.70;;;;;;4969670;28;20023;-59
2021/01/16 03:03:16;;;;;;;23.38;13.55;;;2.60;87.80;;;;;;4944332;28;20022;-58
2021/01/16 03:05:41;;;;;;;19.95;13.63;;;2.40;87.70;;;;;;4984254;28;20104;-57
2021/01/16 03:08:08;;;;;;;21.58;13.32;;;2.70;88.00;;;;;;4967018;28;20073;-57
2021/01/16 03:10:33;;;;;;;22.33;13.77;;;2.40;87.70;;;;;;4985873;28;20027;-58
2021/01/16 03:12:59;;;;;;;26.83;14.07;;;2.40;87.80;;;;;;4970824;28;20041;-58
2021/01/16 03:15:24;;;;;;;22.05;14.43;;;2.40;87.80;;;;;;4972180;28;20033;-57
2021/01/16 03:17:50;;;;;;;22.85;13.98;;;2.30;87.70;;;;;;4978125;28;20030;-58
2021/01/16 03:20:29;;;;;;;20.95;12.90;;;2.40;87.70;;;;;;4984561;28;20030;-57
2021/01/16 03:23:01;;;;;;;20.58;13.52;;;2.30;87.70;;;;;;4971952;28;20494;-56
2021/01/16 03:25:28;;;;;;;19.80;13.27;;;2.30;87.60;;;;;;4964553;28;20058;-57
2021/01/16 03:27:54;;;;;;;22.10;13.98;;;2.40;87.70;;;;;;4969443;28;20014;-57
2021/01/16 03:30:19;;;;;;;19.85;13.00;;;2.50;88.40;;;;;;4970572;28;20613;-57
2021/01/16 03:32:46;;;;;;;18.67;12.68;;;2.30;87.70;;;;;;4976910;28;20502;-58
2021/01/16 03:35:12;;;;;;;19.23;13.02;;;2.70;87.80;;;;;;4976625;28;20042;-56
2021/01/16 03:37:38;;;;;;;21.50;13.00;;;2.30;87.60;;;;;;4975902;28;20038;-57
2021/01/16 03:40:05;;;;;;;21.42;13.70;;;2.30;87.70;;;;;;4984734;28;20015;-58
2021/01/16 03:42:31;;;;;;;17.73;12.65;;;2.30;87.60;;;;;;4938971;28;20042;-58
2021/01/16 03:44:56;;;;;;;22.33;14.15;;;2.40;87.80;;;;;;4978437;28;20043;-57
2021/01/16 03:47:22;;;;;;;15.73;11.70;;;2.40;87.70;;;;;;4965368;28;20054;-58
2021/01/16 03:49:47;;;;;;;20.50;13.38;;;2.20;87.70;;;;;;4968265;28;20054;-58
2021/01/16 03:52:43;;;;;;;18.88;12.85;;;2.20;87.60;;;;;;4966641;28;20476;-56
2021/01/16 03:55:09;;;;;;;18.10;12.52;;;2.30;87.70;;;;;;4957849;28;20045;-58
2021/01/16 03:57:35;;;;;;;20.15;12.85;;;2.20;87.50;;;;;;4952506;28;20109;-58
2021/01/16 04:00:00;;;;;;;19.45;12.23;;;2.20;87.60;;;;;;4976207;28;20098;-58
2021/01/16 04:02:26;;;;;;;20.27;13.52;;;2.20;87.60;;;;;;4968282;28;20496;-57
2021/01/16 04:04:51;;;;;;;18.73;12.48;;;2.50;87.70;;;;;;4965560;28;20071;-57
2021/01/16 04:07:17;;;;;;;17.70;12.13;;;2.20;87.40;;;;;;4952924;28;20333;-57
2021/01/16 04:09:43;;;;;;;19.33;13.02;;;2.20;87.40;;;;;;4981638;28;20057;-57
2021/01/16 04:12:09;;;;;;;18.08;12.20;;;2.20;87.20;;;;;;4982894;28;20479;-59
2021/01/16 04:14:34;;;;;;;17.80;12.65;;;2.20;87.20;;;;;;4965818;28;20039;-58
2021/01/16 04:17:03;;;;;;;17.52;11.68;;;2.40;87.30;;;;;;4962836;28;20030;-59
2021/01/16 04:19:28;;;;;;;16.17;11.98;;;2.60;87.30;;;;;;4962883;28;20059;-57
2021/01/16 04:21:54;;;;;;;17.52;11.63;;;2.40;87.20;;;;;;4965061;28;20109;-58
2021/01/16 04:24:19;;;;;;;18.08;13.13;;;2.20;87.30;;;;;;4975372;28;20479;-57
2021/01/16 04:26:46;;;;;;;16.45;11.63;;;2.50;87.20;;;;;;4965297;28;20038;-57
2021/01/16 04:29:12;;;;;;;16.00;11.40;;;2.10;86.90;;;;;;4987145;28;20039;-56
2021/01/16 04:31:37;;;;;;;15.80;12.10;;;2.20;87.20;;;;;;4962511;28;20089;-57
2021/01/16 04:34:03;;;;;;;16.70;12.30;;;2.20;87.30;;;;;;4952689;28;20681;-59
2021/01/16 04:36:28;;;;;;;18.10;12.55;;;2.30;87.10;;;;;;4951006;29;20047;-58
2021/01/16 04:38:54;;;;;;;19.05;12.98;;;2.20;87.00;;;;;;4960162;28;20031;-57
2021/01/16 04:41:20;;;;;;;17.67;12.73;;;2.10;86.90;;;;;;4956285;28;20035;-57
2021/01/16 04:43:47;;;;;;;15.95;11.73;;;2.10;87.00;;;;;;4980120;28;20367;-57
2021/01/16 04:46:12;;;;;;;17.30;12.23;;;2.20;87.00;;;;;;4984676;28;20025;-58
2021/01/16 04:48:38;;;;;;;17.88;12.00;;;2.10;87.00;;;;;;4951430;28;20034;-57
2021/01/16 04:51:04;;;;;;;17.65;11.70;;;2.20;87.00;;;;;;4975986;28;20042;-58
2021/01/16 04:53:40;;;;;;;18.75;11.50;;;2.10;86.80;;;;;;4972116;28;20119;-58
2021/01/16 04:56:06;;;;;;;17.25;11.82;;;2.20;86.80;;;;;;4939725;28;20604;-57
2021/01/16 04:58:36;;;;;;;20.00;12.00;;;2.10;86.80;;;;;;4963343;28;20105;-59
2021/01/16 05:01:07;;;;;;;18.85;12.27;;;2.30;87.00;;;;;;4941030;29;20039;-56
2021/01/16 05:03:36;;;;;;;15.68;11.50;;;2.10;86.80;;;;;;4969927;28;20034;-56
2021/01/16 05:06:12;;;;;;;18.80;11.80;;;2.20;86.80;;;;;;4986326;28;20059;-58
2021/01/16 05:08:39;;;;;;;15.60;11.25;;;2.10;86.70;;;;;;4954734;28;20090;-60
2021/01/16 05:11:05;;;;;;;16.15;12.02;;;2.30;86.90;;;;;;4970313;28;20105;-58
2021/01/16 05:13:44;;;;;;;16.67;11.63;;;2.00;86.70;;;;;;4986212;28;20023;-57
2021/01/16 05:16:11;;;;;;;16.83;11.63;;;2.00;87.30;;;;;;4979537;28;20046;-57
2021/01/16 05:18:37;;;;;;;17.75;11.35;;;2.00;86.80;;;;;;4964763;28;20494;-59
2021/01/16 05:21:02;;;;;;;17.08;11.18;;;2.30;87.10;;;;;;4966730;28;20456;-58
2021/01/16 05:23:28;;;;;;;17.42;11.98;;;2.00;87.00;;;;;;4968549;28;20039;-57
2021/01/16 05:25:53;;;;;;;16.65;11.70;;;2.00;87.00;;;;;;4966255;28;20044;-58
2021/01/16 05:28:23;;;;;;;16.77;12.32;;;2.00;86.90;;;;;;4985906;28;20109;-58
2021/01/16 05:30:48;;;;;;;16.60;12.10;;;2.00;86.90;;;;;;4979675;28;20035;-56
2021/01/16 05:33:14;;;;;;;15.52;11.77;;;2.00;87.00;;;;;;4970977;28;20486;-56
2021/01/16 05:35:39;;;;;;;16.65;12.30;;;2.10;87.10;;;;;;4977625;28;20029;-59
2021/01/16 05:38:05;;;;;;;16.42;11.30;;;2.00;86.90;;;;;;4982896;28;20049;-57
2021/01/16 05:40:30;;;;;;;15.63;11.23;;;2.00;86.80;;;;;;4975872;28;20034;-59
2021/01/16 05:42:58;;;;;;;17.27;11.57;;;2.20;86.90;;;;;;4988196;28;20394;-59
2021/01/16 05:45:24;;;;;;;19.48;12.52;;;2.00;86.90;;;;;;4978134;28;20070;-58
2021/01/16 05:47:49;;;;;;;16.05;11.88;;;2.20;87.10;;;;;;4971263;28;20542;-56
2021/01/16 05:50:15;;;;;;;15.80;11.40;;;2.00;87.10;;;;;;4961986;28;20031;-57
2021/01/16 05:52:40;;;;;;;21.30;11.45;;;2.00;87.20;;;;;;4980934;28;20050;-58
2021/01/16 05:55:07;;;;;;;15.93;11.95;;;1.90;86.80;;;;;;4981181;28;20038;-59
2021/01/16 05:57:32;;;;;;;17.85;11.85;;;2.00;87.10;;;;;;4989202;28;20109;-59
2021/01/16 05:59:59;;;;;;;17.98;12.85;;;2.20;87.30;;;;;;4973804;28;20109;-57
2021/01/16 06:02:31;;;;;;;17.63;12.00;;;2.00;87.00;;;;;;4971046;28;20398;-58
2021/01/16 06:04:57;;;;;;;17.30;11.95;;;2.00;87.10;;;;;;4945077;28;20081;-57
2021/01/16 06:07:23;;;;;;;14.85;11.68;;;2.00;87.10;;;;;;4970786;28;20034;-57
2021/01/16 06:09:53;;;;;;;16.30;12.32;;;2.10;86.90;;;;;;4976558;28;20053;-57
2021/01/16 06:12:20;;;;;;;16.00;11.73;;;2.00;87.00;;;;;;4971571;28;20117;-59
2021/01/16 06:14:45;;;;;;;16.77;12.65;;;1.90;86.80;;;;;;4980157;28;20089;-57
2021/01/16 06:17:12;;;;;;;16.30;12.10;;;1.90;87.00;;;;;;4967014;28;20026;-57
2021/01/16 06:19:41;;;;;;;15.02;11.55;;;1.90;87.00;;;;;;4961419;28;20027;-58
2021/01/16 06:22:11;;;;;;;18.55;11.95;;;1.90;87.10;;;;;;4968265;28;20546;-57
2021/01/16 06:24:37;;;;;;;19.55;11.82;;;2.40;87.50;;;;;;4962360;28;20027;-57
2021/01/16 06:27:03;;;;;;;19.17;12.48;;;1.90;87.30;;;;;;4973457;28;20025;-58
2021/01/16 06:29:33;;;;;;;16.60;11.52;;;1.90;87.40;;;;;;4947480;28;20030;-59
2021/01/16 06:32:09;;;;;;;18.48;12.23;;;2.20;87.40;;;;;;4983863;28;20037;-57
2021/01/16 06:34:42;;;;;;;16.08;11.55;;;2.30;87.40;;;;;;4984225;28;20050;-58
2021/01/16 06:37:12;;;;;;;18.85;12.65;;;1.90;87.30;;;;;;4975903;28;20026;-56
2021/01/16 06:39:42;;;;;;;16.65;11.70;;;1.90;87.20;;;;;;4989154;28;20372;-58
2021/01/16 06:42:10;;;;;;;16.90;12.27;;;1.90;87.30;;;;;;4976514;28;20034;-59
2021/01/16 06:44:35;;;;;;;17.85;12.02;;;1.90;87.30;;;;;;4953403;28;20042;-58
2021/01/16 06:47:01;;;;;;;17.50;11.95;;;1.90;87.40;;;;;;4966796;28;20022;-57
2021/01/16 06:49:28;;;;;;;15.85;12.05;;;1.90;87.40;;;;;;4948737;28;20133;-58
2021/01/16 06:51:57;;;;;;;16.70;12.15;;;1.90;87.30;;;;;;4963585;28;20398;-56
2021/01/16 06:54:25;;;;;;;17.13;11.60;;;1.90;87.30;;;;;;4973296;28;20110;-56
2021/01/16 06:57:09;;;;;;;17.00;11.98;;;1.90;87.30;;;;;;4970370;28;20034;-57
2021/01/16 06:59:36;;;;;;;15.73;11.52;;;1.90;87.30;;;;;;4986927;28;20066;-61
2021/01/16 07:02:34;;;;;;;15.52;11.80;;;1.90;87.20;;;;;;4954115;28;20106;-58
2021/01/16 07:05:05;;;;;;;15.80;11.45;;;1.90;87.20;;;;;;4986483;28;20038;-57
2021/01/16 07:07:38;;;;;;;16.30;12.23;;;1.90;87.20;;;;;;4969679;28;20023;-59
2021/01/16 07:10:08;;;;;;;18.65;13.00;;;1.90;87.20;;;;;;4974638;28;20030;-56
2021/01/16 07:12:35;;;;;;;16.27;12.25;;;1.90;87.20;;;;;;4982317;28;20022;-58
2021/01/16 07:15:00;;;;;;;17.83;12.63;;;1.90;87.30;;;;;;4970958;28;20117;-59
2021/01/16 07:17:27;;;;;;;21.88;13.38;;;1.90;87.30;;;;;;4983802;28;20106;-57
2021/01/16 07:19:54;;;;;;;18.15;12.35;;;1.90;87.30;;;;;;4971190;28;20118;-56
2021/01/16 07:22:20;;;;;;;18.25;12.68;;;1.90;87.20;;;;;;4983525;28;20463;-56
2021/01/16 07:24:46;;;;;;;18.83;13.48;;;1.90;87.30;;;;;;4987052;28;20034;-58
2021/01/16 07:27:12;;;;;;;19.83;12.65;;;1.90;87.40;;;;;;4980388;28;20580;-60
2021/01/16 07:29:39;;;;;;;17.73;12.10;;;1.80;87.40;;;;;;4975808;28;20049;-59
2021/01/16 07:32:14;;;;;;;17.75;12.65;;;1.80;87.40;;;;;;4984598;28;20358;-58
2021/01/16 07:34:45;;;;;;;17.67;12.50;;;1.80;87.40;;;;;;4968690;28;20075;-58
2021/01/16 07:37:11;;;;;;;16.38;12.30;;;1.90;87.40;;;;;;4941307;28;20022;-58
2021/01/16 07:39:39;;;;;;;18.58;12.52;;;1.80;87.60;;;;;;4986434;28;20422;-57
2021/01/16 07:42:09;;;;;;;17.80;12.77;;;1.80;87.50;;;;;;4971386;28;20065;-58
2021/01/16 07:44:34;;;;;;;19.48;13.63;;;1.90;87.50;;;;;;4982085;28;20059;-57
2021/01/16 07:47:00;;;;;;;17.35;12.48;;;1.90;87.70;;;;;;4964799;28;20035;-58
2021/01/16 07:49:27;;;;;;;18.52;12.68;;;1.80;87.60;;;;;;4986680;28;20390;-57
2021/01/16 07:51:54;;;;;;;19.27;12.73;;;1.80;87.40;;;;;;4980557;28;20050;-56
2021/01/16 07:54:19;;;;;;;17.80;12.50;;;1.90;87.60;;;;;;4981262;28;20523;-59
2021/01/16 07:56:45;;;;;;;16.83;12.48;;;1.90;87.50;;;;;;4955534;28;20109;-57
2021/01/16 07:59:17;;;;;;;17.30;12.48;;;1.80;87.40;;;;;;4991912;28;20037;-58
2021/01/16 08:01:58;;;;;;;17.65;11.27;;;1.80;87.50;;;;;;4976599;28;20554;-59
2021/01/16 08:04:25;;;;;;;19.80;13.15;;;1.80;87.50;;;;;;4993011;28;20027;-59
2021/01/16 08:07:03;;;;;;;18.48;13.25;;;1.80;87.20;;;;;;4971233;28;20041;-57
2021/01/16 08:09:58;;;;;;;19.83;13.63;;;1.80;87.00;;;;;;4992838;28;20031;-56
2021/01/16 08:12:27;;;;;;;19.17;13.35;;;1.80;86.90;;;;;;4961641;28;20085;-57
2021/01/16 08:14:53;;;;;;;19.27;13.60;;;1.80;86.80;;;;;;4978748;28;20026;-58
2021/01/16 08:17:26;;;;;;;19.75;13.52;;;1.80;86.70;;;;;;4980812;28;20027;-56
2021/01/16 08:20:07;;;;;;;23.30;14.70;;;1.80;86.60;;;;;;4986421;28;20494;-58
2021/01/16 08:22:51;;;;;;;20.15;13.73;;;1.70;86.60;;;;;;4957248;28;20227;-59
2021/01/16 08:25:20;;;;;;;20.63;13.35;;;1.70;86.60;;;;;;4978814;28;20023;-58
2021/01/16 08:27:50;;;;;;;21.05;14.10;;;1.70;86.70;;;;;;4974208;28;20034;-59
2021/01/16 08:30:17;;;;;;;19.63;14.27;;;1.60;86.70;;;;;;4979022;28;20110;-58
2021/01/16 08:32:53;;;;;;;19.88;14.52;;;1.70;86.70;;;;;;4979146;28;20042;-58
2021/01/16 08:35:24;;;;;;;22.13;15.07;;;1.60;86.70;;;;;;4984591;28;20047;-57
2021/01/16 08:37:50;;;;;;;20.85;14.45;;;1.60;86.70;;;;;;4973329;28;20041;-57
2021/01/16 08:40:30;;;;;;;23.63;15.35;;;1.60;86.70;;;;;;4968456;28;20389;-57
2021/01/16 08:42:57;;;;;;;20.75;14.80;;;1.60;86.60;;;;;;4970826;28;20054;-58
2021/01/16 08:45:23;;;;;;;21.98;15.38;;;1.60;86.60;;;;;;4967266;28;20046;-56
2021/01/16 08:47:59;;;;;;;22.05;15.05;;;1.60;86.60;;;;;;4987528;28;20550;-58
2021/01/16 08:50:29;;;;;;;22.33;15.70;;;1.60;86.50;;;;;;4958071;28;20026;-59
2021/01/16 08:52:54;;;;;;;24.52;14.82;;;1.60;86.50;;;;;;4983552;28;20121;-56
2021/01/16 08:55:27;;;;;;;25.02;16.45;;;1.70;86.50;;;;;;4976651;28;20073;-57
2021/01/16 08:58:08;;;;;;;21.92;16.15;;;1.60;86.50;;;;;;4959157;28;20035;-59
2021/01/16 09:00:34;;;;;;;25.77;16.70;;;1.60;86.60;;;;;;4988388;28;20077;-57
2021/01/16 09:03:16;;;;;;;24.80;17.40;;;1.60;86.50;;;;;;4990505;28;20026;-59
2021/01/16 09:05:42;;;;;;;21.55;15.60;;;1.60;86.40;;;;;;4978321;28;20130;-59
2021/01/16 09:08:24;;;;;;;27.40;16.90;;;1.60;86.60;;;;;;4950755;28;20027;-58
2021/01/16 09:10:50;;;;;;;26.55;16.58;;;1.70;86.50;;;;;;4977796;28;20031;-57
2021/01/16 09:13:27;;;;;;;25.45;17.20;;;1.60;86.50;;;;;;4981943;28;20034;-56
2021/01/16 09:15:53;;;;;;;23.88;17.90;;;1.60;86.50;;;;;;4952184;28;20058;-57
2021/01/16 09:18:19;;;;;;;24.60;16.52;;;1.60;86.40;;;;;;4938178;28;20026;-60
2021/01/16 09:20:46;;;;;;;26.35;18.00;;;1.60;86.60;;;;;;4961646;28;20077;-57
2021/01/16 09:23:26;;;;;;;24.67;16.80;;;1.60;86.40;;;;;;4990251;28;20026;-58
2021/01/16 09:25:53;;;;;;;28.50;17.38;;;1.60;86.60;;;;;;4971345;28;20085;-58
2021/01/16 09:28:38;;;;;;;26.30;18.17;;;1.60;86.60;;;;;;4967332;28;20022;-56
2021/01/16 09:31:37;;;;;;;25.50;17.90;;;1.60;86.70;;;;;;4974178;28;20594;-59
2021/01/16 09:34:10;;;;;;;25.58;17.52;;;1.60;86.70;;;;;;4977245;28;20042;-57
2021/01/16 09:36:49;;;;;;;27.50;18.23;;;1.60;86.90;;;;;;4950912;28;20033;-59
2021/01/16 09:39:28;;;;;;;27.38;18.80;;;1.90;87.00;;;;;;4975923;28;20027;-58
2021/01/16 09:42:01;;;;;;;25.65;18.23;;;1.60;86.90;;;;;;4969461;28;20598;-59
2021/01/16 09:44:39;;;;;;;29.05;18.73;;;1.60;86.80;;;;;;4962725;28;20038;-56
2021/01/16 09:47:04;;;;;;;36.97;19.38;;;1.60;86.90;;;;;;4983503;28;20042;-57
2021/01/16 09:49:43;;;;;;;29.60;19.27;;;1.60;87.10;;;;;;4966399;28;20044;-58
2021/01/16 09:52:09;;;;;;;47.22;20.52;;;2.00;87.20;;;;;;4972649;28;20042;-58
2021/01/16 09:54:34;;;;;;;39.53;20.17;;;1.70;87.20;;;;;;4965508;28;20031;-60
2021/01/16 09:57:00;;;;;;;46.60;20.50;;;1.90;87.30;;;;;;4963435;28;20041;-57
2021/01/16 09:59:25;;;;;;;45.40;20.85;;;1.60;87.20;;;;;;4982516;28;20035;-57
2021/01/16 10:02:10;;;;;;;44.85;21.13;;;1.70;87.30;;;;;;4978353;28;20034;-58
2021/01/16 10:04:43;;;;;;;35.47;19.77;;;1.90;87.50;;;;;;4960889;28;20117;-56
2021/01/16 10:07:15;;;;;;;33.00;19.67;;;1.70;87.20;;;;;;4945595;28;20030;-57
2021/01/16 10:09:45;;;;;;;38.30;19.73;;;1.70;87.20;;;;;;4950717;28;20035;-57
2021/01/16 10:12:38;;;;;;;39.15;20.10;;;1.70;87.20;;;;;;4954505;28;20038;-56
2021/01/16 10:15:05;;;;;;;30.70;20.50;;;1.70;87.30;;;;;;4984207;28;20015;-57
2021/01/16 10:17:33;;;;;;;35.95;19.60;;;1.70;87.30;;;;;;4979141;28;20054;-58
2021/01/16 10:20:13;;;;;;;36.00;20.52;;;1.70;87.40;;;;;;4977731;28;20058;-59
2021/01/16 10:22:42;;;;;;;37.58;20.48;;;1.70;87.40;;;;;;4966539;28;20038;-56
2021/01/16 10:25:11;;;;;;;34.03;19.00;;;1.80;87.40;;;;;;4954083;28;20037;-58
2021/01/16 10:27:44;;;;;;;43.13;21.35;;;1.70;87.40;;;;;;4984847;28;20022;-57
2021/01/16 10:30:24;;;;;;;31.23;20.00;;;1.70;87.30;;;;;;4980589;28;20038;-57
2021/01/16 10:32:51;;;;;;;71.50;23.20;;;1.70;87.30;;;;;;4980039;28;20706;-58
2021/01/16 10:35:27;;;;;;;41.17;20.67;;;2.10;87.90;;;;;;4983132;28;20118;-58
2021/01/16 10:37:54;;;;;;;32.00;21.58;;;1.70;87.50;;;;;;4983654;28;20033;-57
2021/01/16 10:40:20;;;;;;;34.47;19.67;;;1.80;87.40;;;;;;4985139;28;20047;-56
2021/01/16 10:42:56;;;;;;;45.53;21.25;;;1.70;87.40;;;;;;4981392;28;20061;-59
2021/01/16 10:45:23;;;;;;;41.60;21.85;;;1.70;87.50;;;;;;4973755;28;20043;-57
2021/01/16 10:47:49;;;;;;;36.67;21.05;;;1.70;87.50;;;;;;4957904;28;20478;-58
2021/01/16 10:50:16;;;;;;;42.60;21.23;;;1.80;87.70;;;;;;4958116;28;20061;-57
2021/01/16 10:52:42;;;;;;;33.08;19.50;;;2.10;87.90;;;;;;4946349;28;20502;-56
2021/01/16 10:55:08;;;;;;;36.00;20.02;;;1.70;87.70;;;;;;4959528;28;20054;-57
2021/01/16 10:57:45;;;;;;;38.42;20.27;;;1.70;87.70;;;;;;4957617;28;20104;-58
2021/01/16 11:00:12;;;;;;;38.25;20.92;;;1.70;87.70;;;;;;4944731;28;20375;-57
2021/01/16 11:02:39;;;;;;;46.08;21.25;;;1.70;87.70;;;;;;4986381;28;20168;-58
2021/01/16 11:05:26;;;;;;;40.08;20.55;;;1.70;87.60;;;;;;4978397;28;20129;-56
2021/01/16 11:07:55;;;;;;;36.67;19.73;;;1.70;87.70;;;;;;4965867;28;20027;-58
2021/01/16 11:10:34;;;;;;;43.03;20.67;;;1.70;87.70;;;;;;4950256;28;20053;-57
2021/01/16 11:13:25;;;;;;;48.80;20.23;;;1.70;87.70;;;;;;4980262;28;20347;-57
2021/01/16 11:15:55;;;;;;;32.85;18.92;;;1.70;87.80;;;;;;4967878;28;20088;-57
2021/01/16 11:18:32;;;;;;;41.42;21.15;;;1.90;87.90;;;;;;4971968;28;20026;-57
2021/01/16 11:21:00;;;;;;;37.50;20.73;;;2.20;88.00;;;;;;4969225;28;20514;-56
2021/01/16 11:23:30;;;;;;;47.67;19.85;;;1.90;87.80;;;;;;4970049;28;20034;-58
2021/01/16 11:25:56;;;;;;;38.47;19.60;;;2.20;88.10;;;;;;4954836;28;20030;-56
2021/01/16 11:28:23;;;;;;;39.20;19.60;;;1.80;87.90;;;;;;4972353;28;20394;-58
2021/01/16 11:30:49;;;;;;;38.00;19.58;;;2.10;88.10;;;;;;4954918;28;20030;-57
2021/01/16 11:33:25;;;;;;;57.47;20.30;;;1.90;87.90;;;;;;4985079;28;20684;-58
2021/01/16 11:36:03;;;;;;;40.53;21.77;;;1.90;87.80;;;;;;4967476;28;20022;-58
2021/01/16 11:38:49;;;;;;;37.92;20.88;;;1.90;87.80;;;;;;4975477;28;20031;-57
2021/01/16 11:41:35;;;;;;;38.15;19.17;;;1.80;87.80;;;;;;4973784;28;20030;-59
2021/01/16 11:44:00;;;;;;;32.92;19.75;;;1.80;87.70;;;;;;4957275;28;20479;-58
2021/01/16 11:46:27;;;;;;;37.95;21.73;;;1.90;88.00;;;;;;4948671;28;20046;-56
2021/01/16 11:48:53;;;;;;;41.40;21.98;;;1.90;88.00;;;;;;4985887;28;20030;-57
2021/01/16 11:51:19;;;;;;;34.42;20.90;;;2.00;88.10;;;;;;4983416;28;20038;-59
2021/01/16 11:53:48;;;;;;;33.90;20.77;;;1.90;88.00;;;;;;4969945;28;20089;-57
2021/01/16 11:56:15;;;;;;;32.28;20.35;;;2.20;88.00;;;;;;4957676;28;20084;-57
2021/01/16 11:58:43;;;;;;;36.75;20.33;;;2.40;88.20;;;;;;4989407;28;20126;-58
2021/01/16 12:01:09;;;;;;;30.58;19.48;;;1.90;87.80;;;;;;4954980;28;20034;-56
2021/01/16 12:03:34;;;;;;;32.38;19.85;;;2.30;88.20;;;;;;4957137;28;20065;-59
2021/01/16 12:06:15;;;;;;;38.45;21.30;;;1.90;87.90;;;;;;4937393;28;20078;-58
2021/01/16 12:08:42;;;;;;;31.48;19.02;;;1.90;87.80;;;;;;4989659;28;20085;-59
2021/01/16 12:11:08;;;;;;;32.95;20.48;;;2.20;88.00;;;;;;4959273;28;20102;-56
2021/01/16 12:13:34;;;;;;;36.00;21.20;;;1.90;88.00;;;;;;4937603;28;20486;-59
2021/01/16 12:15:59;;;;;;;29.00;19.27;;;1.90;87.90;;;;;;4967542;28;20031;-57
2021/01/16 12:18:25;;;;;;;33.53;20.60;;;1.90;88.00;;;;;;4970804;28;20054;-58
2021/01/16 12:20:50;;;;;;;26.02;19.52;;;1.90;88.00;;;;;;4964752;28;20010;-57
2021/01/16 12:23:16;;;;;;;30.75;20.77;;;1.90;88.00;;;;;;4968108;28;20497;-57
2021/01/16 12:25:41;;;;;;;35.83;19.70;;;2.20;88.20;;;;;;4984720;28;20041;-57
2021/01/16 12:28:11;;;;;;;31.02;19.40;;;2.00;88.10;;;;;;4983023;28;20086;-57
2021/01/16 12:30:38;;;;;;;29.77;20.17;;;1.90;88.10;;;;;;4949903;28;20022;-58
2021/01/16 12:33:04;;;;;;;31.33;20.27;;;1.90;88.10;;;;;;4989078;28;20410;-59
2021/01/16 12:35:29;;;;;;;30.60;19.58;;;1.90;88.10;;;;;;4952298;28;20054;-59
2021/01/16 12:37:55;;;;;;;29.92;20.77;;;1.80;88.00;;;;;;4984442;28;20027;-57
2021/01/16 12:40:22;;;;;;;30.23;19.40;;;2.30;88.20;;;;;;4948399;28;20125;-58
2021/01/16 12:42:48;;;;;;;32.13;19.65;;;1.90;88.00;;;;;;4964800;28;20027;-57
2021/01/16 12:45:18;;;;;;;27.75;19.95;;;2.00;88.00;;;;;;4957123;28;20031;-57